createdAt,value
2019-01-26T00:00:43.574Z,74.12
2019-01-26T00:01:47.563Z,74.59
2019-01-26T00:02:51.728Z,74.55
2019-01-26T00:03:55.724Z,74.53
2019-01-26T00:04:59.905Z,74.43
2019-01-26T00:06:03.914Z,74.91
2019-01-26T00:07:08.013Z,74.83
2019-01-26T00:08:12.127Z,74.64
2019-01-26T00:09:16.234Z,74.59
2019-01-26T00:10:20.245Z,75.82
2019-01-26T00:11:24.352Z,75.03
2019-01-26T00:12:28.343Z,74.95
2019-01-26T00:13:32.381Z,74.93
2019-01-26T00:14:36.431Z,74.98
2019-01-26T00:15:40.564Z,75.28
2019-01-26T00:16:44.511Z,75.65
2019-01-26T00:17:48.546Z,75.77
2019-01-26T00:18:52.582Z,75.42
2019-01-26T00:19:56.656Z,75.42
2019-01-26T00:21:00.794Z,75.80
2019-01-26T00:22:04.860Z,77.04
2019-01-26T00:23:09.015Z,76.67
2019-01-26T00:24:13.008Z,77.04
2019-01-26T00:25:17.072Z,76.55
2019-01-26T00:26:21.190Z,76.34
2019-01-26T00:27:26.076Z,76.45
2019-01-26T00:28:29.722Z,76.36
2019-01-26T00:29:33.720Z,76.50
2019-01-26T00:30:37.922Z,77.81
2019-01-26T00:31:41.926Z,76.95
2019-01-26T00:32:45.967Z,76.49
2019-01-26T00:33:49.994Z,77.37
2019-01-26T00:34:54.923Z,77.26
2019-01-26T00:35:58.566Z,77.02
2019-01-26T00:37:03.493Z,76.82
2019-01-26T00:38:07.133Z,77.62
2019-01-26T00:39:11.196Z,77.08
2019-01-26T00:40:15.285Z,77.87
2019-01-26T00:41:19.455Z,77.06
2019-01-26T00:42:23.544Z,77.09
2019-01-26T00:43:27.657Z,77.03
2019-01-26T00:44:31.784Z,77.32
2019-01-26T00:45:35.873Z,77.04
2019-01-26T00:46:39.860Z,77.10
2019-01-26T00:47:43.892Z,77.16
2019-01-26T00:48:48.052Z,77.36
2019-01-26T00:49:52.021Z,77.20
2019-01-26T00:50:56.100Z,77.83
2019-01-26T00:52:00.130Z,77.53
2019-01-26T00:53:04.146Z,77.43
2019-01-26T00:54:08.306Z,77.50
2019-01-26T00:55:12.373Z,78.29
2019-01-26T00:56:16.404Z,78.35
2019-01-26T00:57:20.479Z,77.85
2019-01-26T00:58:24.624Z,79.55
2019-01-26T00:59:28.616Z,80.73
2019-01-26T01:00:32.675Z,81.11
2019-01-26T01:01:37.619Z,80.71
2019-01-26T01:02:42.215Z,81.16
2019-01-26T01:03:45.879Z,81.72
2019-01-26T01:04:49.907Z,82.04
2019-01-26T01:05:53.995Z,82.37
2019-01-26T01:06:58.015Z,82.74
2019-01-26T01:08:02.063Z,82.57
2019-01-26T01:09:06.215Z,83.10
2019-01-26T01:10:10.191Z,83.05
2019-01-26T01:11:14.264Z,82.74
2019-01-26T01:12:18.355Z,83.15
2019-01-26T01:13:22.436Z,83.09
2019-01-26T01:14:26.474Z,82.97
2019-01-26T01:15:30.670Z,82.53
2019-01-26T01:16:36.014Z,82.49
2019-01-26T01:17:39.658Z,82.82
2019-01-26T01:18:43.414Z,83.13
2019-01-26T01:19:48.340Z,83.04
2019-01-26T01:20:52.095Z,82.48
2019-01-26T01:21:56.940Z,82.26
2019-01-26T01:23:00.681Z,81.89
2019-01-26T01:24:04.782Z,81.86
2019-01-26T01:25:08.889Z,81.83
2019-01-26T01:26:12.921Z,81.77
2019-01-26T01:27:17.097Z,81.84
2019-01-26T01:28:21.175Z,81.87
2019-01-26T01:29:25.257Z,82.20
2019-01-26T01:30:29.199Z,82.41
2019-01-26T01:31:33.295Z,82.47
2019-01-26T01:32:37.432Z,82.45
2019-01-26T01:33:41.458Z,82.17
2019-01-26T01:34:45.549Z,81.45
2019-01-26T01:35:50.475Z,81.36
2019-01-26T01:36:54.223Z,81.56
2019-01-26T01:37:58.304Z,82.12
2019-01-26T01:39:02.330Z,82.34
2019-01-26T01:40:06.356Z,82.02
2019-01-26T01:41:10.538Z,81.95
2019-01-26T01:42:14.515Z,82.66
2019-01-26T01:43:18.664Z,82.13
2019-01-26T01:44:22.644Z,81.79
2019-01-26T01:45:26.795Z,81.92
2019-01-26T01:46:31.730Z,82.22
2019-01-26T01:47:36.329Z,82.32
2019-01-26T01:48:40.828Z,82.50
2019-01-26T01:49:44.461Z,83.31
2019-01-26T01:50:48.582Z,83.10
2019-01-26T01:51:52.604Z,83.02
2019-01-26T01:52:56.753Z,82.95
2019-01-26T01:54:00.812Z,82.76
2019-01-26T01:55:04.939Z,82.56
2019-01-26T01:56:09.066Z,82.66
2019-01-26T01:57:13.069Z,82.39
2019-01-26T01:58:17.228Z,82.66
2019-01-26T01:59:21.318Z,82.24
2019-01-26T02:00:25.428Z,82.12
2019-01-26T02:01:29.448Z,81.81
2019-01-26T02:02:33.520Z,82.24
2019-01-26T02:03:38.478Z,82.47
2019-01-26T02:04:42.264Z,82.23
2019-01-26T02:05:46.325Z,82.22
2019-01-26T02:06:50.470Z,82.38
2019-01-26T02:07:54.648Z,82.36
2019-01-26T02:08:58.626Z,82.19
2019-01-26T02:10:02.804Z,82.00
2019-01-26T02:11:07.691Z,81.61
2019-01-26T02:12:11.370Z,81.56
2019-01-26T02:13:15.527Z,82.25
2019-01-26T02:14:19.506Z,82.17
2019-01-26T02:15:23.683Z,82.08
2019-01-26T02:16:27.728Z,81.95
2019-01-26T02:17:31.749Z,82.06
2019-01-26T02:18:35.822Z,81.95
2019-01-26T02:19:39.907Z,82.01
2019-01-26T02:20:44.042Z,81.80
2019-01-26T02:21:48.143Z,81.84
2019-01-26T02:22:52.203Z,81.78
2019-01-26T02:23:56.264Z,81.91
2019-01-26T02:25:00.341Z,81.97
2019-01-26T02:26:04.431Z,81.67
2019-01-26T02:27:08.520Z,81.59
2019-01-26T02:28:13.449Z,81.55
2019-01-26T02:29:17.225Z,82.03
2019-01-26T02:30:22.083Z,81.82
2019-01-26T02:31:25.748Z,81.89
2019-01-26T02:32:29.957Z,81.70
2019-01-26T02:33:34.034Z,81.76
2019-01-26T02:34:38.122Z,81.54
2019-01-26T02:35:42.112Z,81.37
2019-01-26T02:36:46.303Z,81.38
2019-01-26T02:37:50.289Z,81.36
2019-01-26T02:38:54.384Z,81.07
2019-01-26T02:39:58.473Z,81.15
2019-01-26T02:41:02.488Z,81.20
2019-01-26T02:42:06.580Z,81.70
2019-01-26T02:43:10.657Z,81.83
2019-01-26T02:44:15.609Z,81.52
2019-01-26T02:45:20.232Z,81.78
2019-01-26T02:46:23.965Z,81.48
2019-01-26T02:47:27.968Z,81.73
2019-01-26T02:48:32.924Z,82.00
2019-01-26T02:49:36.594Z,81.63
2019-01-26T02:50:40.632Z,81.68
2019-01-26T02:51:45.577Z,81.74
2019-01-26T02:52:50.184Z,82.08
2019-01-26T02:53:53.779Z,82.20
2019-01-26T02:54:57.821Z,82.24
2019-01-26T02:56:01.964Z,82.26
2019-01-26T02:57:06.095Z,81.96
2019-01-26T02:58:10.250Z,82.02
2019-01-26T02:59:14.212Z,82.12
2019-01-26T03:00:18.295Z,81.83
2019-01-26T03:01:22.343Z,81.80
2019-01-26T03:02:27.342Z,81.52
2019-01-26T03:03:31.104Z,81.54
2019-01-26T03:04:35.109Z,81.49
2019-01-26T03:05:39.151Z,81.43
2019-01-26T03:06:43.217Z,81.39
2019-01-26T03:07:47.342Z,81.46
2019-01-26T03:08:51.386Z,81.47
2019-01-26T03:09:55.460Z,81.74
2019-01-26T03:10:59.517Z,81.54
2019-01-26T03:12:03.593Z,81.44
2019-01-26T03:13:07.788Z,81.66
2019-01-26T03:14:11.772Z,81.49
2019-01-26T03:15:15.869Z,81.42
2019-01-26T03:16:19.897Z,81.38
2019-01-26T03:17:23.974Z,81.29
2019-01-26T03:18:28.041Z,81.31
2019-01-26T03:19:32.086Z,81.28
2019-01-26T03:20:36.221Z,81.47
2019-01-26T03:21:40.230Z,81.52
2019-01-26T03:22:44.323Z,81.40
2019-01-26T03:23:48.522Z,81.54
2019-01-26T03:24:53.443Z,81.59
2019-01-26T03:25:57.097Z,81.78
2019-01-26T03:27:01.130Z,81.66
2019-01-26T03:28:05.392Z,81.65
2019-01-26T03:29:09.351Z,81.70
2019-01-26T03:30:13.389Z,81.72
2019-01-26T03:31:17.562Z,81.61
2019-01-26T03:32:21.605Z,81.73
2019-01-26T03:33:26.602Z,81.75
2019-01-26T03:34:30.377Z,81.70
2019-01-26T03:35:35.265Z,81.77
2019-01-26T03:36:39.804Z,82.00
2019-01-26T03:37:43.474Z,82.14
2019-01-26T03:38:47.614Z,82.03
2019-01-26T03:39:51.643Z,82.14
2019-01-26T03:40:55.803Z,82.17
2019-01-26T03:42:00.703Z,82.05
2019-01-26T03:43:04.512Z,82.03
2019-01-26T03:44:08.595Z,81.98
2019-01-26T03:45:13.526Z,82.34
2019-01-26T03:46:17.303Z,82.16
2019-01-26T03:47:22.167Z,82.22
2019-01-26T03:48:25.843Z,82.39
2019-01-26T03:49:29.963Z,82.31
2019-01-26T03:50:34.080Z,82.55
2019-01-26T03:51:38.190Z,82.82
2019-01-26T03:52:42.229Z,83.05
2019-01-26T03:53:46.400Z,83.12
2019-01-26T03:54:51.302Z,82.86
2019-01-26T03:55:54.977Z,82.98
2019-01-26T03:56:59.133Z,83.02
2019-01-26T03:58:04.037Z,82.86
2019-01-26T03:59:07.809Z,82.89
2019-01-26T04:00:11.810Z,83.25
2019-01-26T04:01:15.984Z,83.14
2019-01-26T04:02:19.997Z,83.03
2019-01-26T04:03:24.946Z,83.27
2019-01-26T04:04:28.708Z,83.05
2019-01-26T04:05:32.719Z,83.06
2019-01-26T04:06:36.760Z,82.83
2019-01-26T04:07:40.823Z,83.21
2019-01-26T04:08:44.867Z,83.20
2019-01-26T04:09:48.971Z,83.60
2019-01-26T04:10:53.117Z,83.60
2019-01-26T04:11:57.110Z,83.25
2019-01-26T04:13:01.297Z,83.34
2019-01-26T04:14:05.317Z,83.34
2019-01-26T04:15:09.456Z,83.19
2019-01-26T04:16:14.373Z,83.16
2019-01-26T04:17:22.024Z,83.17
2019-01-26T04:18:22.200Z,83.22
2019-01-26T04:19:26.264Z,83.30
2019-01-26T04:20:30.401Z,83.12
2019-01-26T04:21:34.549Z,83.10
2019-01-26T04:22:38.590Z,83.48
2019-01-26T04:23:42.620Z,83.60
2019-01-26T04:24:46.839Z,83.54
2019-01-26T04:25:50.941Z,83.45
2019-01-26T04:26:54.954Z,83.38
2019-01-26T04:27:59.057Z,83.52
2019-01-26T04:29:03.106Z,83.31
2019-01-26T04:30:07.204Z,83.30
2019-01-26T04:31:11.380Z,83.75
2019-01-26T04:32:16.298Z,83.67
2019-01-26T04:33:19.943Z,83.30
2019-01-26T04:34:24.107Z,83.19
2019-01-26T04:35:28.271Z,83.26
2019-01-26T04:36:32.245Z,83.15
2019-01-26T04:37:36.448Z,83.16
2019-01-26T04:38:40.453Z,82.95
2019-01-26T04:39:44.525Z,83.12
2019-01-26T04:40:48.612Z,83.01
2019-01-26T04:41:52.706Z,82.97
2019-01-26T04:42:56.791Z,83.37
2019-01-26T04:44:00.948Z,83.05
2019-01-26T04:45:05.883Z,82.88
2019-01-26T04:46:10.440Z,83.20
2019-01-26T04:47:14.195Z,83.34
2019-01-26T04:48:18.213Z,83.33
2019-01-26T04:49:22.381Z,83.11
2019-01-26T04:50:27.305Z,83.05
2019-01-26T04:51:30.968Z,82.94
2019-01-26T04:52:35.028Z,82.91
2019-01-26T04:53:39.108Z,83.10
2019-01-26T04:54:43.173Z,83.24
2019-01-26T04:55:47.273Z,83.52
2019-01-26T04:56:51.335Z,83.36
2019-01-26T04:57:55.434Z,83.20
2019-01-26T04:58:59.592Z,83.15
2019-01-26T05:00:04.535Z,83.23
2019-01-26T05:01:08.210Z,83.35
2019-01-26T05:02:12.290Z,83.33
2019-01-26T05:03:16.401Z,83.60
2019-01-26T05:04:21.325Z,84.20
2019-01-26T05:05:25.126Z,84.17
2019-01-26T05:06:29.195Z,83.98
2019-01-26T05:07:33.332Z,84.10
2019-01-26T05:08:37.455Z,84.39
2019-01-26T05:09:42.353Z,84.18
2019-01-26T05:10:46.035Z,84.06
2019-01-26T05:11:50.164Z,84.05
2019-01-26T05:12:55.098Z,83.93
2019-01-26T05:13:58.781Z,83.81
2019-01-26T05:15:02.854Z,83.63
2019-01-26T05:16:06.978Z,83.64
2019-01-26T05:17:11.110Z,83.76
2019-01-26T05:18:15.151Z,83.66
2019-01-26T05:19:19.321Z,83.94
2019-01-26T05:20:24.238Z,83.88
2019-01-26T05:21:28.810Z,83.87
2019-01-26T05:22:32.495Z,83.83
2019-01-26T05:23:36.587Z,84.04
2019-01-26T05:24:40.771Z,83.77
2019-01-26T05:25:44.758Z,83.61
2019-01-26T05:26:48.870Z,83.51
2019-01-26T05:27:52.918Z,83.30
2019-01-26T05:28:57.078Z,83.13
2019-01-26T05:30:01.107Z,83.11
2019-01-26T05:31:05.314Z,83.06
2019-01-26T05:32:09.312Z,83.28
2019-01-26T05:33:13.378Z,83.37
2019-01-26T05:34:18.333Z,83.34
2019-01-26T05:35:21.989Z,83.27
2019-01-26T05:36:26.179Z,83.27
2019-01-26T05:37:30.292Z,83.10
2019-01-26T05:38:34.325Z,83.03
2019-01-26T05:39:39.300Z,83.04
2019-01-26T05:40:43.066Z,83.24
2019-01-26T05:41:47.198Z,83.15
2019-01-26T05:42:51.157Z,83.16
2019-01-26T05:43:55.261Z,83.00
2019-01-26T05:44:59.337Z,82.90
2019-01-26T05:46:03.513Z,83.01
2019-01-26T05:47:07.634Z,83.17
2019-01-26T05:48:11.628Z,83.13
2019-01-26T05:49:15.696Z,82.96
2019-01-26T05:50:19.880Z,83.10
2019-01-26T05:51:23.936Z,83.38
2019-01-26T05:52:28.842Z,83.47
2019-01-26T05:53:32.648Z,83.25
2019-01-26T05:54:36.758Z,83.25
2019-01-26T05:55:40.763Z,83.15
2019-01-26T05:56:44.900Z,83.04
2019-01-26T05:57:49.055Z,83.11
2019-01-26T05:58:53.185Z,83.14
2019-01-26T05:59:57.218Z,83.03
2019-01-26T06:01:01.266Z,82.98
2019-01-26T06:02:05.455Z,83.14
2019-01-26T06:03:09.524Z,83.30
2019-01-26T06:04:14.514Z,83.24
2019-01-26T06:05:18.241Z,83.56
2019-01-26T06:06:22.360Z,83.59
2019-01-26T06:07:26.461Z,83.89
2019-01-26T06:08:30.612Z,84.18
2019-01-26T06:09:34.636Z,84.35
2019-01-26T06:10:39.624Z,84.86
2019-01-26T06:11:44.206Z,84.53
2019-01-26T06:12:47.975Z,84.58
2019-01-26T06:13:52.090Z,84.34
2019-01-26T06:14:56.108Z,84.14
2019-01-26T06:16:00.187Z,84.08
2019-01-26T06:17:04.333Z,83.85
2019-01-26T06:18:08.357Z,83.79
2019-01-26T06:19:12.521Z,83.86
2019-01-26T06:20:16.627Z,83.94
2019-01-26T06:21:20.647Z,83.92
2019-01-26T06:22:24.840Z,83.69
2019-01-26T06:23:29.769Z,83.58
2019-01-26T06:24:34.355Z,83.46
2019-01-26T06:25:38.023Z,83.63
2019-01-26T06:26:42.171Z,83.56
2019-01-26T06:27:47.111Z,83.81
2019-01-26T06:28:50.877Z,83.73
2019-01-26T06:29:55.020Z,83.83
2019-01-26T06:30:59.940Z,83.79
2019-01-26T06:32:04.523Z,83.62
2019-01-26T06:33:08.273Z,83.63
2019-01-26T06:34:12.335Z,83.71
2019-01-26T06:35:16.394Z,83.57
2019-01-26T06:36:20.488Z,83.55
2019-01-26T06:37:25.478Z,83.67
2019-01-26T06:38:29.171Z,83.64
2019-01-26T06:39:33.343Z,83.82
2019-01-26T06:40:37.429Z,83.84
2019-01-26T06:41:41.538Z,83.94
2019-01-26T06:42:45.631Z,83.89
2019-01-26T06:43:50.608Z,83.72
2019-01-26T06:44:54.383Z,83.64
2019-01-26T06:45:59.293Z,83.60
2019-01-26T06:47:02.966Z,83.56
2019-01-26T06:48:07.974Z,83.73
2019-01-26T06:49:11.722Z,83.58
2019-01-26T06:50:16.644Z,83.50
2019-01-26T06:51:20.401Z,83.59
2019-01-26T06:52:24.553Z,83.58
2019-01-26T06:53:28.613Z,83.57
2019-01-26T06:54:32.756Z,83.55
2019-01-26T06:55:36.878Z,83.58
2019-01-26T06:56:40.910Z,83.73
2019-01-26T06:57:45.898Z,83.66
2019-01-26T06:58:49.619Z,83.64
2019-01-26T06:59:53.681Z,83.81
2019-01-26T07:00:57.860Z,83.97
2019-01-26T07:02:01.876Z,83.76
2019-01-26T07:03:06.030Z,83.75
2019-01-26T07:04:10.051Z,83.67
2019-01-26T07:05:14.236Z,83.83
2019-01-26T07:06:18.337Z,83.78
2019-01-26T07:07:22.430Z,83.83
2019-01-26T07:08:26.493Z,83.69
2019-01-26T07:09:30.671Z,83.86
2019-01-26T07:10:34.701Z,83.92
2019-01-26T07:11:38.884Z,83.91
2019-01-26T07:12:43.778Z,84.00
2019-01-26T07:13:48.374Z,84.39
2019-01-26T07:14:52.123Z,84.17
2019-01-26T07:15:56.254Z,84.05
2019-01-26T07:17:00.364Z,84.06
2019-01-26T07:18:09.414Z,83.97
2019-01-26T07:19:08.518Z,83.89
2019-01-26T07:20:12.682Z,83.84
2019-01-26T07:21:16.816Z,83.80
2019-01-26T07:22:21.739Z,83.83
2019-01-26T07:23:25.407Z,83.72
2019-01-26T07:24:29.623Z,83.89
2019-01-26T07:25:33.718Z,83.76
2019-01-26T07:26:37.739Z,83.89
2019-01-26T07:27:42.703Z,83.75
2019-01-26T07:28:46.418Z,83.85
2019-01-26T07:29:50.481Z,83.68
2019-01-26T07:30:54.636Z,83.87
2019-01-26T07:31:59.567Z,83.63
2019-01-26T07:33:03.309Z,83.61
2019-01-26T07:34:07.345Z,83.72
2019-01-26T07:35:12.286Z,83.80
2019-01-26T07:36:16.094Z,83.86
2019-01-26T07:37:21.016Z,84.00
2019-01-26T07:38:24.702Z,83.85
2019-01-26T07:39:29.717Z,84.23
2019-01-26T07:40:34.298Z,84.14
2019-01-26T07:41:37.966Z,84.08
2019-01-26T07:42:42.134Z,83.97
2019-01-26T07:43:46.240Z,84.09
2019-01-26T07:44:51.197Z,84.25
2019-01-26T07:45:54.963Z,84.14
2019-01-26T07:46:59.104Z,83.99
2019-01-26T07:48:03.297Z,84.15
2019-01-26T07:49:07.346Z,84.19
2019-01-26T07:50:12.323Z,84.17
2019-01-26T07:51:16.056Z,84.20
2019-01-26T07:52:20.109Z,84.12
2019-01-26T07:53:24.283Z,84.20
2019-01-26T07:54:28.317Z,84.07
2019-01-26T07:55:32.403Z,84.04
2019-01-26T07:56:36.586Z,84.08
2019-01-26T07:57:40.620Z,84.14
2019-01-26T07:58:44.696Z,84.58
2019-01-26T07:59:48.820Z,84.67
2019-01-26T08:00:52.915Z,84.39
2019-01-26T08:01:57.018Z,84.30
2019-01-26T08:03:01.124Z,84.39
2019-01-26T08:04:05.312Z,84.57
2019-01-26T08:05:09.423Z,84.77
2019-01-26T08:06:13.558Z,84.76
2019-01-26T08:07:17.570Z,84.70
2019-01-26T08:08:22.560Z,84.78
2019-01-26T08:09:26.343Z,84.58
2019-01-26T08:10:31.351Z,84.57
2019-01-26T08:11:35.143Z,84.73
2019-01-26T08:12:39.183Z,84.64
2019-01-26T08:13:43.273Z,84.80
2019-01-26T08:14:47.381Z,84.73
2019-01-26T08:15:51.602Z,84.60
2019-01-26T08:16:55.716Z,84.52
2019-01-26T08:18:00.603Z,84.64
2019-01-26T08:19:04.323Z,84.80
2019-01-26T08:20:08.579Z,84.91
2019-01-26T08:21:12.669Z,84.95
2019-01-26T08:22:16.707Z,85.01
2019-01-26T08:23:20.800Z,84.86
2019-01-26T08:24:24.909Z,84.84
2019-01-26T08:25:29.093Z,84.75
2019-01-26T08:26:33.265Z,84.88
2019-01-26T08:27:37.397Z,84.85
2019-01-26T08:28:41.546Z,84.79
2019-01-26T08:29:45.586Z,84.69
2019-01-26T08:30:49.706Z,84.58
2019-01-26T08:31:53.908Z,84.53
2019-01-26T08:32:58.012Z,84.57
2019-01-26T08:34:02.025Z,84.65
2019-01-26T08:35:06.212Z,84.55
2019-01-26T08:36:13.349Z,84.47
2019-01-26T08:37:16.521Z,84.46
2019-01-26T08:38:21.457Z,84.41
2019-01-26T08:39:25.231Z,84.46
2019-01-26T08:40:30.208Z,84.49
2019-01-26T08:41:33.881Z,84.72
2019-01-26T08:42:38.075Z,84.68
2019-01-26T08:43:42.089Z,85.34
2019-01-26T08:44:46.144Z,85.53
2019-01-26T08:45:50.283Z,85.60
2019-01-26T08:46:54.438Z,85.57
2019-01-26T08:47:58.570Z,86.25
2019-01-26T08:49:02.598Z,86.32
2019-01-26T08:50:06.812Z,86.10
2019-01-26T08:51:10.964Z,86.51
2019-01-26T08:52:15.101Z,86.77
2019-01-26T08:53:19.109Z,87.14
2019-01-26T08:54:23.317Z,87.22
2019-01-26T08:55:27.356Z,87.41
2019-01-26T08:56:31.471Z,87.71
2019-01-26T08:57:35.543Z,87.90
2019-01-26T08:58:39.684Z,88.03
2019-01-26T08:59:43.851Z,88.21
2019-01-26T09:00:47.848Z,88.25
2019-01-26T09:01:51.951Z,88.36
2019-01-26T09:02:56.932Z,88.52
2019-01-26T09:04:01.552Z,88.72
2019-01-26T09:05:05.243Z,88.80
2019-01-26T09:06:09.326Z,88.83
2019-01-26T09:07:13.378Z,88.93
2019-01-26T09:08:17.512Z,88.98
2019-01-26T09:09:21.651Z,89.09
2019-01-26T09:10:25.753Z,89.21
2019-01-26T09:11:29.918Z,89.30
2019-01-26T09:12:33.938Z,89.39
2019-01-26T09:13:38.032Z,89.39
2019-01-26T09:14:42.223Z,89.47
2019-01-26T09:15:46.258Z,89.46
2019-01-26T09:16:50.445Z,89.40
2019-01-26T09:17:54.473Z,89.50
2019-01-26T09:18:58.683Z,89.55
2019-01-26T09:20:02.796Z,89.63
2019-01-26T09:21:06.964Z,89.57
2019-01-26T09:22:11.010Z,89.50
2019-01-26T09:23:15.127Z,89.47
2019-01-26T09:24:19.173Z,89.35
2019-01-26T09:25:23.385Z,89.53
2019-01-26T09:26:27.442Z,89.58
2019-01-26T09:27:32.411Z,89.41
2019-01-26T09:28:36.210Z,89.35
2019-01-26T09:29:42.583Z,89.46
2019-01-26T09:30:44.829Z,89.56
2019-01-26T09:31:48.940Z,89.74
2019-01-26T09:32:53.006Z,89.88
2019-01-26T09:33:57.095Z,89.93
2019-01-26T09:35:01.175Z,89.97
2019-01-26T09:36:05.266Z,90.08
2019-01-26T09:37:10.312Z,90.06
2019-01-26T09:38:14.105Z,89.98
2019-01-26T09:39:19.064Z,89.87
2019-01-26T09:40:23.612Z,89.73
2019-01-26T09:41:27.332Z,89.62
2019-01-26T09:42:31.416Z,89.48
2019-01-26T09:43:35.576Z,89.33
2019-01-26T09:44:39.738Z,89.17
2019-01-26T09:45:43.786Z,89.00
2019-01-26T09:46:48.000Z,88.86
2019-01-26T09:47:52.952Z,88.86
2019-01-26T09:48:56.753Z,88.69
2019-01-26T09:50:00.918Z,88.61
2019-01-26T09:51:04.935Z,88.48
2019-01-26T09:52:09.022Z,88.37
2019-01-26T09:53:13.255Z,88.39
2019-01-26T09:54:17.407Z,88.31
2019-01-26T09:55:21.569Z,88.18
2019-01-26T09:56:25.731Z,88.12
2019-01-26T09:57:30.679Z,87.98
2019-01-26T09:58:34.471Z,87.80
2019-01-26T09:59:39.370Z,87.71
2019-01-26T10:00:43.180Z,87.65
2019-01-26T10:01:47.285Z,87.51
2019-01-26T10:02:51.380Z,87.47
2019-01-26T10:03:55.424Z,87.44
2019-01-26T10:04:59.684Z,87.48
2019-01-26T10:06:03.806Z,87.42
2019-01-26T10:07:07.877Z,87.20
2019-01-26T10:08:12.083Z,87.24
2019-01-26T10:09:16.132Z,87.31
2019-01-26T10:10:20.221Z,87.31
2019-01-26T10:11:27.288Z,87.25
2019-01-26T10:12:30.400Z,87.31
2019-01-26T10:13:35.400Z,87.19
2019-01-26T10:14:39.091Z,87.36
2019-01-26T10:15:43.297Z,87.39
2019-01-26T10:16:47.354Z,87.34
2019-01-26T10:17:51.572Z,87.38
2019-01-26T10:18:55.744Z,87.26
2019-01-26T10:19:59.780Z,87.30
2019-01-26T10:21:03.993Z,87.20
2019-01-26T10:22:08.176Z,87.11
2019-01-26T10:23:12.307Z,87.07
2019-01-26T10:24:16.452Z,87.15
2019-01-26T10:25:20.608Z,87.19
2019-01-26T10:26:24.704Z,87.17
2019-01-26T10:27:28.902Z,87.13
2019-01-26T10:28:33.015Z,86.97
2019-01-26T10:29:37.088Z,86.99
2019-01-26T10:30:41.202Z,86.90
2019-01-26T10:31:45.411Z,86.88
2019-01-26T10:32:49.462Z,86.80
2019-01-26T10:33:53.702Z,86.97
2019-01-26T10:34:57.728Z,86.91
2019-01-26T10:36:01.923Z,86.98
2019-01-26T10:37:06.893Z,86.93
2019-01-26T10:38:10.695Z,86.89
2019-01-26T10:39:14.836Z,86.99
2019-01-26T10:40:18.881Z,87.16
2019-01-26T10:41:23.089Z,87.06
2019-01-26T10:42:27.202Z,86.93
2019-01-26T10:43:31.263Z,86.87
2019-01-26T10:44:35.543Z,86.94
2019-01-26T10:45:39.671Z,86.91
2019-01-26T10:46:44.624Z,86.87
2019-01-26T10:47:48.341Z,86.85
2019-01-26T10:48:52.616Z,86.81
2019-01-26T10:49:56.659Z,87.09
2019-01-26T10:51:00.829Z,87.00
2019-01-26T10:52:04.902Z,86.97
2019-01-26T10:53:09.122Z,86.98
2019-01-26T10:54:13.285Z,86.88
2019-01-26T10:55:17.315Z,86.94
2019-01-26T10:56:21.501Z,86.88
2019-01-26T10:57:25.677Z,86.82
2019-01-26T10:58:29.827Z,87.14
2019-01-26T10:59:33.905Z,87.14
2019-01-26T11:00:38.016Z,87.13
2019-01-26T11:01:43.065Z,87.06
2019-01-26T11:02:47.683Z,87.06
2019-01-26T11:03:52.299Z,87.00
2019-01-26T11:04:56.030Z,87.05
2019-01-26T11:06:00.207Z,86.90
2019-01-26T11:07:04.342Z,86.92
2019-01-26T11:08:08.515Z,87.03
2019-01-26T11:09:12.675Z,86.90
2019-01-26T11:10:16.816Z,86.93
2019-01-26T11:11:20.953Z,86.87
2019-01-26T11:12:25.110Z,86.80
2019-01-26T11:13:29.249Z,86.98
2019-01-26T11:14:33.312Z,87.17
2019-01-26T11:15:37.350Z,87.39
2019-01-26T11:16:41.567Z,87.29
2019-01-26T11:17:45.732Z,87.29
2019-01-26T11:18:49.710Z,87.19
2019-01-26T11:19:53.991Z,87.36
2019-01-26T11:20:58.196Z,87.43
2019-01-26T11:22:02.370Z,87.55
2019-01-26T11:23:06.481Z,87.50
2019-01-26T11:24:10.629Z,87.32
2019-01-26T11:25:14.821Z,87.28
2019-01-26T11:26:18.972Z,87.22
2019-01-26T11:27:23.535Z,87.18
2019-01-26T11:28:27.193Z,87.24
2019-01-26T11:29:31.454Z,87.34
2019-01-26T11:30:36.404Z,87.31
2019-01-26T11:31:40.250Z,87.35
2019-01-26T11:32:44.394Z,87.25
2019-01-26T11:33:48.410Z,87.16
2019-01-26T11:34:52.663Z,87.13
2019-01-26T11:35:56.745Z,87.14
2019-01-26T11:37:00.936Z,87.23
2019-01-26T11:38:05.084Z,87.13
2019-01-26T11:39:09.139Z,87.26
2019-01-26T11:40:13.393Z,87.22
2019-01-26T11:41:17.543Z,87.18
2019-01-26T11:42:21.624Z,87.11
2019-01-26T11:43:25.702Z,87.08
2019-01-26T11:44:29.947Z,87.03
2019-01-26T11:45:34.050Z,86.96
2019-01-26T11:46:38.184Z,87.21
2019-01-26T11:47:42.249Z,87.15
2019-01-26T11:48:46.462Z,87.29
2019-01-26T11:49:50.650Z,87.27
2019-01-26T11:50:54.829Z,87.27
2019-01-26T11:51:58.872Z,87.20
2019-01-26T11:53:02.956Z,87.36
2019-01-26T11:54:07.146Z,87.31
2019-01-26T11:55:11.386Z,87.26
2019-01-26T11:56:15.579Z,87.24
2019-01-26T11:57:19.790Z,87.22
2019-01-26T11:58:23.914Z,87.25
2019-01-26T11:59:27.964Z,87.16
2019-01-26T12:00:32.114Z,87.16
2019-01-26T12:01:36.230Z,87.19
2019-01-26T12:02:40.322Z,87.20
2019-01-26T12:03:44.542Z,87.22
2019-01-26T12:04:48.732Z,87.18
2019-01-26T12:05:52.936Z,87.15
2019-01-26T12:06:57.101Z,87.15
2019-01-26T12:08:01.152Z,87.34
2019-01-26T12:09:05.267Z,87.62
2019-01-26T12:10:09.392Z,87.58
2019-01-26T12:11:13.529Z,87.57
2019-01-26T12:12:17.772Z,87.59
2019-01-26T12:13:21.932Z,87.52
2019-01-26T12:14:26.004Z,87.53
2019-01-26T12:15:31.026Z,87.49
2019-01-26T12:16:34.873Z,87.56
2019-01-26T12:17:38.914Z,87.65
2019-01-26T12:18:43.084Z,87.64
2019-01-26T12:19:47.288Z,87.69
2019-01-26T12:20:51.384Z,87.83
2019-01-26T12:21:55.590Z,87.96
2019-01-26T12:22:59.755Z,87.94
2019-01-26T12:24:03.915Z,88.00
2019-01-26T12:25:08.089Z,87.94
2019-01-26T12:26:12.258Z,87.83
2019-01-26T12:27:16.327Z,87.77
2019-01-26T12:28:20.569Z,87.73
2019-01-26T12:29:25.513Z,87.75
2019-01-26T12:30:29.261Z,87.81
2019-01-26T12:31:33.485Z,87.88
2019-01-26T12:32:37.663Z,87.97
2019-01-26T12:33:41.855Z,88.03
2019-01-26T12:34:48.904Z,87.98
2019-01-26T12:35:52.025Z,87.88
2019-01-26T12:36:57.033Z,87.83
2019-01-26T12:38:00.825Z,87.77
2019-01-26T12:39:04.904Z,87.74
2019-01-26T12:40:09.128Z,87.81
2019-01-26T12:41:13.223Z,87.70
2019-01-26T12:42:17.437Z,87.76
2019-01-26T12:43:21.591Z,87.67
2019-01-26T12:44:25.751Z,87.71
2019-01-26T12:45:29.909Z,87.70
2019-01-26T12:46:33.987Z,87.85
2019-01-26T12:47:38.101Z,87.87
2019-01-26T12:48:42.180Z,87.79
2019-01-26T12:49:46.423Z,87.72
2019-01-26T12:50:50.589Z,87.68
2019-01-26T12:51:54.783Z,87.72
2019-01-26T12:52:58.956Z,87.70
2019-01-26T12:54:02.979Z,87.68
2019-01-26T12:55:07.269Z,87.63
2019-01-26T12:56:11.356Z,87.71
2019-01-26T12:57:15.467Z,87.69
2019-01-26T12:58:19.700Z,87.65
2019-01-26T12:59:23.752Z,87.57
2019-01-26T13:00:27.975Z,87.65
2019-01-26T13:01:32.030Z,87.88
2019-01-26T13:02:36.259Z,87.84
2019-01-26T13:03:40.432Z,87.82
2019-01-26T13:04:44.596Z,88.07
2019-01-26T13:05:48.654Z,88.20
2019-01-26T13:06:52.875Z,88.08
2019-01-26T13:07:56.959Z,88.07
2019-01-26T13:09:01.189Z,87.97
2019-01-26T13:10:05.219Z,88.13
2019-01-26T13:11:10.271Z,88.08
2019-01-26T13:12:14.141Z,88.36
2019-01-26T13:13:18.172Z,88.53
2019-01-26T13:14:22.313Z,88.52
2019-01-26T13:15:26.569Z,88.50
2019-01-26T13:16:30.748Z,88.60
2019-01-26T13:17:34.941Z,88.69
2019-01-26T13:18:39.089Z,88.52
2019-01-26T13:19:43.160Z,88.53
2019-01-26T13:20:47.377Z,88.50
2019-01-26T13:21:51.452Z,88.39
2019-01-26T13:22:55.695Z,88.35
2019-01-26T13:24:00.697Z,88.72
2019-01-26T13:25:04.475Z,88.87
2019-01-26T13:26:08.584Z,89.01
2019-01-26T13:27:12.820Z,88.95
2019-01-26T13:28:16.980Z,88.84
2019-01-26T13:29:21.114Z,88.83
2019-01-26T13:30:25.216Z,88.90
2019-01-26T13:31:29.355Z,89.02
2019-01-26T13:32:33.512Z,88.88
2019-01-26T13:33:37.704Z,88.76
2019-01-26T13:34:41.855Z,88.70
2019-01-26T13:35:46.066Z,88.66
2019-01-26T13:36:50.243Z,88.63
2019-01-26T13:37:54.431Z,88.79
2019-01-26T13:38:58.604Z,88.82
2019-01-26T13:40:02.778Z,88.84
2019-01-26T13:41:06.868Z,88.91
2019-01-26T13:42:10.980Z,88.77
2019-01-26T13:43:16.025Z,88.67
2019-01-26T13:44:19.863Z,88.70
2019-01-26T13:45:24.037Z,88.65
2019-01-26T13:46:28.227Z,88.58